createdAt,value
2022-10-23T00:01:45.048Z,45.52
2022-10-23T00:04:17.728Z,40.67
2022-10-23T00:06:46.154Z,45.03
2022-10-23T00:09:17.959Z,42.88
2022-10-23T00:11:50.276Z,40.17
2022-10-23T00:14:21.288Z,47.50
2022-10-23T00:16:48.870Z,40.08
2022-10-23T00:19:16.980Z,39.63
2022-10-23T00:21:44.675Z,43.25
2022-10-23T00:24:12.466Z,36.93
2022-10-23T00:26:40.209Z,40.58
2022-10-23T00:29:09.285Z,56.37
2022-10-23T00:31:38.308Z,72.32
2022-10-23T00:34:07.784Z,66.50
2022-10-23T00:36:35.859Z,63.58
2022-10-23T00:39:05.140Z,52.10
2022-10-23T00:41:34.188Z,49.23
2022-10-23T00:44:12.765Z,52.85
2022-10-23T00:46:40.450Z,46.30
2022-10-23T00:49:09.362Z,42.40
2022-10-23T00:51:42.381Z,38.98
2022-10-23T00:54:23.385Z,34.27
2022-10-23T00:56:46.132Z,40.70
2022-10-23T00:59:17.423Z,30.48
2022-10-23T01:01:50.404Z,25.00
2022-10-23T01:04:20.576Z,21.87
2022-10-23T01:07:17.530Z,21.02
2022-10-23T01:10:04.554Z,21.62
2022-10-23T01:13:06.483Z,20.12
2022-10-23T01:15:55.483Z,20.68
2022-10-23T01:18:37.278Z,19.20
2022-10-23T01:21:37.615Z,19.85
2022-10-23T01:24:45.947Z,18.32
2022-10-23T01:27:24.192Z,19.48
2022-10-23T01:30:08.602Z,20.80
2022-10-23T01:33:04.250Z,17.62
2022-10-23T01:35:47.464Z,20.45
2022-10-23T01:38:20.880Z,22.93
2022-10-23T01:41:01.209Z,19.35
2022-10-23T01:43:34.321Z,20.08
2022-10-23T01:46:05.746Z,19.87
2022-10-23T01:48:37.174Z,17.52
2022-10-23T01:51:08.791Z,16.30
2022-10-23T01:53:40.942Z,17.00
2022-10-23T01:56:13.936Z,19.95
2022-10-23T01:58:46.781Z,18.02
2022-10-23T02:01:18.158Z,18.73
2022-10-23T02:03:49.989Z,18.75
2022-10-23T02:06:18.348Z,20.57
2022-10-23T02:08:46.743Z,18.42
2022-10-23T02:11:17.960Z,10.82
2022-10-23T02:14:10.754Z,9.18
2022-10-23T02:16:54.111Z,9.65
2022-10-23T02:22:14.634Z,8.48
2022-10-23T02:24:59.806Z,7.53
2022-10-23T02:27:45.091Z,8.50
2022-10-23T02:30:16.850Z,6.80
2022-10-23T02:32:53.386Z,8.75
2022-10-23T02:35:23.747Z,8.30
2022-10-23T02:37:57.596Z,7.85
2022-10-23T02:40:41.129Z,8.33
2022-10-23T02:43:23.377Z,7.78
2022-10-23T02:46:02.707Z,8.58
2022-10-23T02:48:35.649Z,9.28
2022-10-23T02:51:25.431Z,8.75
2022-10-23T02:54:29.071Z,10.15
2022-10-23T02:57:37.140Z,9.18
2022-10-23T03:00:11.078Z,8.93
2022-10-23T03:02:56.624Z,15.85
2022-10-23T03:05:30.132Z,9.50
2022-10-23T03:10:25.552Z,9.95
2022-10-23T03:12:53.527Z,11.78
2022-10-23T03:15:21.458Z,8.68
2022-10-23T03:17:49.885Z,9.00
2022-10-23T03:20:18.294Z,9.45
2022-10-23T03:22:46.593Z,8.63
2022-10-23T03:25:14.382Z,8.58
2022-10-23T03:27:42.125Z,7.22
2022-10-23T03:30:11.601Z,8.83
2022-10-23T03:32:40.548Z,9.55
2022-10-23T03:35:08.721Z,13.05
2022-10-23T03:37:36.201Z,11.05
2022-10-23T03:40:05.155Z,10.60
2022-10-23T03:42:34.800Z,10.28
2022-10-23T03:45:02.431Z,10.93
2022-10-23T03:47:30.244Z,10.55
2022-10-23T03:49:58.416Z,11.35
2022-10-23T03:52:25.939Z,10.10
2022-10-23T03:54:53.519Z,9.35
2022-10-23T03:57:20.952Z,9.03
2022-10-23T03:59:48.380Z,8.28
2022-10-23T04:02:17.310Z,8.55
2022-10-23T04:04:44.863Z,6.25
2022-10-23T04:07:12.465Z,6.30
2022-10-23T04:09:40.116Z,6.40
2022-10-23T04:12:09.189Z,7.90
2022-10-23T04:14:37.081Z,4.78
2022-10-23T04:17:05.013Z,5.92
2022-10-23T04:19:32.639Z,5.03
2022-10-23T04:22:00.120Z,4.72
2022-10-23T04:24:27.807Z,6.05
2022-10-23T04:26:55.607Z,5.22
2022-10-23T04:29:25.391Z,5.65
2022-10-23T04:31:53.012Z,5.75
2022-10-23T04:34:20.690Z,7.03
2022-10-23T04:36:48.452Z,6.90
2022-10-23T04:39:16.129Z,7.00
2022-10-23T04:41:43.663Z,8.35
2022-10-23T04:44:11.416Z,7.92
2022-10-23T04:46:39.276Z,10.23
2022-10-23T04:49:06.917Z,10.63
2022-10-23T04:51:53.031Z,10.00
2022-10-23T04:54:25.126Z,11.78
2022-10-23T04:56:57.008Z,11.88
2022-10-23T04:59:24.935Z,13.58
2022-10-23T05:01:52.740Z,13.35
2022-10-23T05:04:20.587Z,13.22
2022-10-23T05:07:06.817Z,12.47
2022-10-23T05:09:42.447Z,15.05
2022-10-23T05:12:11.798Z,14.75
2022-10-23T05:14:39.614Z,16.82
2022-10-23T05:17:17.484Z,11.60
2022-10-23T05:19:51.574Z,13.03
2022-10-23T05:22:21.295Z,14.85
2022-10-23T05:24:50.948Z,14.10
2022-10-23T05:27:20.356Z,15.65
2022-10-23T05:29:47.848Z,15.35
2022-10-23T05:32:17.620Z,14.93
2022-10-23T05:34:45.726Z,14.70
2022-10-23T05:37:16.321Z,14.55
2022-10-23T05:39:45.279Z,15.58
2022-10-23T05:42:14.830Z,15.13
2022-10-23T05:44:42.916Z,17.15
2022-10-23T05:47:12.257Z,13.48
2022-10-23T05:49:58.498Z,16.40
2022-10-23T05:52:36.512Z,13.95
2022-10-23T05:55:09.471Z,14.15
2022-10-23T05:57:45.693Z,11.97
2022-10-23T06:00:15.629Z,15.78
2022-10-23T06:02:43.072Z,15.35
2022-10-23T06:05:15.692Z,14.58
2022-10-23T06:07:48.163Z,13.95
2022-10-23T06:10:15.751Z,13.28
2022-10-23T06:12:45.152Z,13.10
2022-10-23T06:15:14.678Z,18.02
2022-10-23T06:17:44.446Z,16.50
2022-10-23T06:20:12.497Z,18.77
2022-10-23T06:22:40.522Z,15.53
2022-10-23T06:25:13.334Z,15.95
2022-10-23T06:27:41.331Z,17.00
2022-10-23T06:30:10.517Z,16.30
2022-10-23T06:32:38.061Z,13.03
2022-10-23T06:35:08.731Z,15.80
2022-10-23T06:37:36.408Z,16.07
2022-10-23T06:40:09.634Z,17.17
2022-10-23T06:42:57.563Z,17.37
2022-10-23T06:45:25.115Z,15.80
2022-10-23T06:47:54.437Z,14.30
2022-10-23T06:50:33.900Z,17.27
2022-10-23T06:53:04.954Z,16.30
2022-10-23T06:55:33.621Z,14.85
2022-10-23T06:58:02.123Z,16.75
2022-10-23T07:00:29.901Z,15.13
2022-10-23T07:02:57.350Z,16.85
2022-10-23T07:05:25.036Z,17.73
2022-10-23T07:07:52.803Z,16.05
2022-10-23T07:10:22.771Z,16.07
2022-10-23T07:12:56.706Z,17.17
2022-10-23T07:15:39.414Z,15.25
2022-10-23T07:18:10.683Z,18.25
2022-10-23T07:20:42.087Z,15.15
2022-10-23T07:23:11.763Z,15.70
2022-10-23T07:25:39.693Z,15.53
2022-10-23T07:28:08.215Z,16.97
2022-10-23T07:30:36.561Z,16.93
2022-10-23T07:33:04.428Z,19.07
2022-10-23T07:35:46.884Z,19.90
2022-10-23T07:38:17.160Z,21.57
2022-10-23T07:40:46.683Z,21.02
2022-10-23T07:43:17.907Z,21.23
2022-10-23T07:45:48.291Z,19.95
2022-10-23T07:48:21.327Z,21.05
2022-10-23T07:50:51.491Z,22.35
2022-10-23T07:53:24.904Z,30.52
2022-10-23T07:56:00.697Z,22.75
2022-10-23T07:58:30.260Z,23.20
2022-10-23T08:01:23.368Z,20.30
2022-10-23T08:03:50.948Z,20.62
2022-10-23T08:06:18.886Z,19.55
2022-10-23T08:08:47.148Z,17.82
2022-10-23T08:11:17.787Z,21.35
2022-10-23T08:13:47.580Z,20.08
2022-10-23T08:16:15.286Z,20.05
2022-10-23T08:18:54.825Z,24.43
2022-10-23T08:21:22.740Z,22.58
2022-10-23T08:23:59.790Z,21.15
2022-10-23T08:26:28.918Z,20.65
2022-10-23T08:28:59.076Z,22.05
2022-10-23T08:31:27.541Z,18.80
2022-10-23T08:34:05.698Z,22.75
2022-10-23T08:36:33.443Z,19.87
2022-10-23T08:39:01.239Z,18.55
2022-10-23T08:41:37.046Z,19.73
2022-10-23T08:44:38.350Z,20.77
2022-10-23T08:47:17.114Z,23.35
2022-10-23T08:50:00.255Z,22.52
2022-10-23T08:52:35.855Z,22.85
2022-10-23T08:55:23.750Z,21.95
2022-10-23T08:58:10.120Z,21.23
2022-10-23T09:00:37.841Z,20.97
2022-10-23T09:03:05.636Z,22.32
2022-10-23T09:05:39.025Z,23.90
2022-10-23T09:08:47.844Z,23.83
2022-10-23T09:11:26.675Z,21.25
2022-10-23T09:14:14.638Z,22.85
2022-10-23T09:17:04.412Z,23.55
2022-10-23T09:19:32.349Z,21.80
2022-10-23T09:22:00.756Z,19.87
2022-10-23T09:24:30.267Z,24.18
2022-10-23T09:26:58.163Z,20.20
2022-10-23T09:29:31.353Z,21.15
2022-10-23T09:32:03.554Z,22.50
2022-10-23T09:34:34.338Z,21.95
2022-10-23T09:37:22.325Z,20.68
2022-10-23T09:40:19.328Z,19.82
2022-10-23T09:43:01.448Z,21.27
2022-10-23T09:45:33.755Z,19.15
2022-10-23T09:48:14.900Z,21.53
2022-10-23T09:50:48.927Z,19.50
2022-10-23T09:53:33.252Z,22.50
2022-10-23T09:56:10.897Z,23.00
2022-10-23T09:58:43.496Z,22.22
2022-10-23T10:01:30.144Z,21.40
2022-10-23T10:03:59.910Z,23.32
2022-10-23T10:06:31.117Z,24.27
2022-10-23T10:09:03.797Z,22.67
2022-10-23T10:11:40.671Z,22.65
2022-10-23T10:14:45.043Z,22.73
2022-10-23T10:17:44.482Z,31.68
2022-10-23T10:20:48.541Z,20.68
2022-10-23T10:23:47.807Z,22.25
2022-10-23T10:26:40.947Z,22.15
2022-10-23T10:29:27.343Z,19.13
2022-10-23T10:32:24.262Z,20.77
2022-10-23T10:34:57.580Z,18.27
2022-10-23T10:37:49.546Z,16.73
2022-10-23T10:40:34.875Z,19.32
2022-10-23T10:43:32.227Z,20.65
2022-10-23T10:46:22.890Z,19.98
2022-10-23T10:48:58.440Z,19.98
2022-10-23T10:51:59.616Z,21.48
2022-10-23T10:54:45.258Z,27.45
2022-10-23T10:57:45.585Z,31.85
2022-10-23T11:00:23.007Z,21.70
2022-10-23T11:03:15.041Z,20.68
2022-10-23T11:05:50.093Z,26.80
2022-10-23T11:08:27.813Z,26.07
2022-10-23T11:11:00.047Z,25.35
2022-10-23T11:13:40.098Z,23.83
2022-10-23T11:16:23.071Z,27.10
2022-10-23T11:19:27.578Z,27.67
2022-10-23T11:22:09.632Z,22.10
2022-10-23T11:24:58.319Z,20.20
2022-10-23T11:27:46.995Z,19.67
2022-10-23T11:30:56.890Z,17.17
2022-10-23T11:33:53.969Z,29.10
2022-10-23T11:36:55.028Z,24.32
2022-10-23T11:39:29.178Z,31.93
2022-10-23T11:42:10.080Z,26.93
2022-10-23T11:44:50.321Z,19.25
2022-10-23T11:47:40.431Z,19.62
2022-10-23T11:50:12.691Z,19.57
2022-10-23T11:53:16.124Z,19.35
2022-10-23T11:55:38.017Z,17.95
2022-10-23T11:58:13.971Z,17.15
2022-10-23T12:00:52.469Z,17.55
2022-10-23T12:03:30.065Z,16.25
2022-10-23T12:06:02.463Z,16.02
2022-10-23T12:08:34.671Z,17.93
2022-10-23T12:11:02.413Z,15.20
2022-10-23T12:13:38.342Z,15.83
2022-10-23T12:16:07.325Z,16.93
2022-10-23T12:18:52.419Z,16.42
2022-10-23T12:21:26.527Z,16.00
2022-10-23T12:24:36.347Z,14.55
2022-10-23T12:27:18.512Z,15.53
2022-10-23T12:30:11.784Z,33.67
2022-10-23T12:33:03.461Z,16.30
2022-10-23T12:35:55.002Z,16.42
2022-10-23T12:38:26.722Z,28.02
2022-10-23T12:41:04.008Z,14.10
2022-10-23T12:43:36.269Z,18.00
2022-10-23T12:46:34.494Z,23.22
2022-10-23T12:49:06.515Z,16.95
2022-10-23T12:51:36.178Z,17.12
2022-10-23T12:54:04.740Z,14.55
2022-10-23T12:56:36.410Z,15.95
2022-10-23T12:59:09.037Z,16.77
2022-10-23T13:01:39.412Z,14.03
2022-10-23T13:04:29.436Z,14.75
2022-10-23T13:07:00.764Z,18.70
2022-10-23T13:09:35.814Z,16.12
2022-10-23T13:12:31.505Z,16.60
2022-10-23T13:15:10.924Z,17.20
2022-10-23T13:17:42.913Z,24.77
2022-10-23T13:20:25.979Z,43.42
2022-10-23T13:23:19.560Z,16.42
2022-10-23T13:26:00.403Z,14.40
2022-10-23T13:28:32.654Z,19.40
2022-10-23T13:31:18.086Z,13.50
2022-10-23T13:34:01.630Z,18.80
2022-10-23T13:36:34.524Z,14.07
2022-10-23T13:39:10.436Z,13.40
2022-10-23T13:41:44.761Z,13.22
2022-10-23T13:44:15.781Z,18.45
2022-10-23T13:46:43.906Z,19.82
2022-10-23T13:49:11.846Z,20.75
2022-10-23T13:51:50.557Z,15.32
2022-10-23T13:54:25.453Z,16.15
2022-10-23T13:56:54.780Z,19.10
2022-10-23T13:59:23.100Z,23.90
2022-10-23T14:01:51.838Z,20.68
2022-10-23T14:04:21.131Z,20.00
2022-10-23T14:06:48.851Z,23.38
2022-10-23T14:09:18.171Z,18.60
2022-10-23T14:11:45.510Z,23.77
2022-10-23T14:14:13.018Z,20.95
2022-10-23T14:16:40.683Z,21.87
2022-10-23T14:19:08.680Z,17.00
2022-10-23T14:21:36.428Z,13.53
2022-10-23T14:24:04.037Z,49.05
2022-10-23T14:26:32.309Z,23.35
2022-10-23T14:29:02.925Z,19.55
2022-10-23T14:31:29.525Z,25.43
2022-10-23T14:34:00.141Z,26.30
2022-10-23T14:36:38.382Z,28.05
2022-10-23T14:39:00.059Z,14.13
2022-10-23T14:41:27.779Z,13.93
2022-10-23T14:43:55.168Z,13.08
2022-10-23T14:46:24.655Z,16.27
2022-10-23T14:48:57.440Z,26.40
2022-10-23T14:51:27.080Z,36.83
2022-10-23T14:54:01.691Z,22.42
2022-10-23T14:56:32.923Z,20.43
2022-10-23T14:59:04.109Z,18.57
2022-10-23T15:01:35.784Z,17.85
2022-10-23T15:04:03.857Z,19.27
2022-10-23T15:06:33.980Z,22.77
2022-10-23T15:09:02.711Z,23.20
2022-10-23T15:11:31.154Z,21.33
2022-10-23T15:13:59.906Z,24.10
2022-10-23T15:16:28.439Z,28.35
2022-10-23T15:18:56.290Z,34.73
2022-10-23T15:21:23.966Z,36.55
2022-10-23T15:23:52.525Z,55.73
2022-10-23T15:26:22.736Z,54.65
2022-10-23T15:28:56.306Z,49.25
2022-10-23T15:31:40.262Z,51.15
2022-10-23T15:34:18.162Z,49.67
2022-10-23T15:36:46.735Z,69.65
2022-10-23T15:39:18.697Z,78.40
2022-10-23T15:41:47.133Z,60.10
2022-10-23T15:44:19.046Z,57.03
2022-10-23T15:46:48.044Z,64.77
2022-10-23T15:49:17.785Z,56.25
2022-10-23T15:51:45.894Z,55.12
2022-10-23T15:54:18.321Z,47.05
2022-10-23T15:56:49.072Z,48.50
2022-10-23T15:59:18.195Z,49.80
2022-10-23T16:01:45.908Z,51.53
2022-10-23T16:04:15.590Z,47.80
2022-10-23T16:06:44.928Z,45.65
2022-10-23T16:09:13.058Z,45.73
2022-10-23T16:11:42.417Z,41.85
2022-10-23T16:14:13.673Z,56.80
2022-10-23T16:16:41.719Z,58.42
2022-10-23T16:19:10.671Z,53.73
2022-10-23T16:21:38.583Z,42.25
2022-10-23T16:24:08.064Z,47.88
2022-10-23T16:26:36.624Z,61.30
2022-10-23T16:29:07.328Z,59.88
2022-10-23T16:31:35.384Z,53.40
2022-10-23T16:34:04.910Z,49.83
2022-10-23T16:36:33.982Z,38.88
2022-10-23T16:39:08.348Z,53.15
2022-10-23T16:41:54.150Z,54.05
2022-10-23T16:44:23.564Z,58.42
2022-10-23T16:46:56.205Z,47.55
2022-10-23T16:49:23.611Z,56.68
2022-10-23T16:51:50.737Z,54.00
2022-10-23T16:54:18.553Z,48.28
2022-10-23T16:56:46.843Z,49.27
2022-10-23T16:59:14.495Z,48.25
2022-10-23T17:01:42.033Z,66.28
2022-10-23T17:04:10.060Z,57.30
2022-10-23T17:06:37.590Z,51.02
2022-10-23T17:09:05.811Z,49.03
2022-10-23T17:11:38.380Z,51.42
2022-10-23T17:14:13.874Z,49.60
2022-10-23T17:16:51.103Z,52.48
2022-10-23T17:21:55.490Z,45.80
2022-10-23T17:24:23.997Z,51.02
2022-10-23T17:26:51.957Z,52.13
2022-10-23T17:29:20.572Z,57.48
2022-10-23T17:31:51.092Z,51.35
2022-10-23T17:34:22.260Z,50.48
2022-10-23T17:36:53.281Z,65.65
2022-10-23T17:39:25.378Z,75.40
2022-10-23T17:41:53.496Z,88.30
2022-10-23T17:44:21.705Z,68.50
2022-10-23T17:46:54.817Z,93.22
2022-10-23T17:49:24.051Z,58.05
2022-10-23T17:51:57.268Z,59.98
2022-10-23T17:54:27.067Z,72.90
2022-10-23T17:56:55.789Z,55.20
2022-10-23T17:59:23.938Z,61.25
2022-10-23T18:01:51.547Z,62.27
2022-10-23T18:04:20.954Z,68.28
2022-10-23T18:06:52.269Z,71.20
2022-10-23T18:09:21.440Z,68.80
2022-10-23T18:11:49.497Z,79.22
2022-10-23T18:14:19.976Z,72.30
2022-10-23T18:16:48.779Z,82.08
2022-10-23T18:19:18.267Z,88.47
2022-10-23T18:21:47.030Z,83.30
2022-10-23T18:24:15.553Z,86.85
2022-10-23T18:26:43.618Z,74.50
2022-10-23T18:29:12.679Z,69.67
2022-10-23T18:31:41.484Z,72.15
2022-10-23T18:34:20.537Z,82.65
2022-10-23T18:36:50.494Z,86.37
2022-10-23T18:39:22.789Z,77.20
2022-10-23T18:41:55.101Z,74.37
2022-10-23T18:44:26.854Z,77.87
2022-10-23T18:46:56.552Z,75.45
2022-10-23T18:49:24.300Z,68.30
2022-10-23T18:51:52.246Z,66.45
2022-10-23T18:54:21.277Z,109.97
2022-10-23T18:56:49.697Z,121.33
2022-10-23T18:59:20.050Z,76.28
2022-10-23T19:01:48.362Z,63.25
2022-10-23T19:04:18.067Z,53.87
2022-10-23T19:06:47.254Z,62.40
2022-10-23T19:09:15.748Z,61.50
2022-10-23T19:11:45.210Z,66.97
2022-10-23T19:14:12.884Z,55.70
2022-10-23T19:17:09.899Z,50.05
2022-10-23T19:19:51.630Z,37.03
2022-10-23T19:22:19.153Z,32.88
2022-10-23T19:24:55.848Z,29.07
2022-10-23T19:27:25.732Z,32.73
2022-10-23T19:29:55.140Z,42.35
2022-10-23T19:32:22.499Z,44.98
2022-10-23T19:34:49.914Z,55.10
2022-10-23T19:37:17.216Z,48.78
2022-10-23T19:39:45.035Z,49.08
2022-10-23T19:42:12.440Z,48.15
2022-10-23T19:44:40.088Z,39.90
2022-10-23T19:47:07.447Z,49.67
2022-10-23T19:49:35.024Z,43.87
2022-10-23T19:52:02.754Z,37.55
2022-10-23T19:54:30.437Z,32.10
2022-10-23T19:56:58.163Z,36.50
2022-10-23T19:59:25.976Z,34.27
2022-10-23T20:01:53.753Z,32.42
2022-10-23T20:04:21.457Z,32.83
2022-10-23T20:06:49.217Z,31.17
2022-10-23T20:09:16.862Z,27.17
2022-10-23T20:11:44.744Z,25.35
2022-10-23T20:14:13.022Z,22.98
2022-10-23T20:16:44.362Z,26.10
2022-10-23T20:21:46.871Z,24.20
2022-10-23T20:24:17.726Z,25.50
2022-10-23T20:26:50.255Z,28.75
2022-10-23T20:29:18.561Z,21.70
2022-10-23T20:31:46.282Z,21.85
2022-10-23T20:34:13.783Z,29.30
2022-10-23T20:36:46.669Z,36.98
2022-10-23T20:39:18.471Z,30.52
2022-10-23T20:41:47.238Z,36.05
2022-10-23T20:46:44.885Z,52.43
2022-10-23T20:49:13.678Z,59.70
2022-10-23T20:51:42.416Z,66.75
2022-10-23T20:54:10.751Z,79.87
2022-10-23T20:56:39.391Z,53.52
2022-10-23T20:59:15.867Z,38.48
2022-10-23T21:01:50.700Z,31.65
2022-10-23T21:04:22.499Z,33.38
2022-10-23T21:07:08.944Z,27.50
2022-10-23T21:09:22.630Z,26.15
2022-10-23T21:11:50.790Z,19.70
2022-10-23T21:14:18.273Z,23.92
2022-10-23T21:16:46.338Z,24.07
2022-10-23T21:19:15.509Z,23.38
2022-10-23T21:21:44.145Z,31.65
2022-10-23T21:24:15.016Z,36.45
2022-10-23T21:26:43.500Z,28.83
2022-10-23T21:29:20.522Z,28.57
2022-10-23T21:31:41.792Z,21.80
2022-10-23T21:36:48.561Z,22.60
2022-10-23T21:39:06.457Z,24.15
2022-10-23T21:41:34.718Z,16.85
2022-10-23T21:44:05.455Z,14.25
2022-10-23T21:46:35.407Z,13.70
2022-10-23T21:49:03.021Z,20.60
2022-10-23T21:51:37.902Z,20.23
2022-10-23T21:54:09.675Z,18.95
2022-10-23T21:56:44.849Z,33.42
2022-10-23T21:59:16.703Z,27.48
2022-10-23T22:01:46.239Z,19.65
2022-10-23T22:04:18.128Z,16.80
2022-10-23T22:06:48.126Z,20.32
2022-10-23T22:09:18.976Z,19.17
2022-10-23T22:11:49.658Z,16.37
2022-10-23T22:14:17.451Z,24.82
2022-10-23T22:16:45.463Z,17.90
2022-10-23T22:19:16.680Z,24.60
2022-10-23T22:21:44.422Z,19.62
2022-10-23T22:24:12.067Z,21.50
2022-10-23T22:26:47.236Z,35.28
2022-10-23T22:29:19.092Z,31.02
2022-10-23T22:31:49.923Z,23.55
2022-10-23T22:34:48.270Z,28.80
2022-10-23T22:36:56.785Z,50.85
2022-10-23T22:39:24.246Z,47.58
2022-10-23T22:41:51.930Z,31.23
2022-10-23T22:44:19.611Z,26.37
2022-10-23T22:46:47.487Z,26.52
2022-10-23T22:49:15.179Z,26.48
2022-10-23T22:51:42.614Z,24.12
2022-10-23T22:54:10.524Z,25.92
2022-10-23T22:56:38.129Z,20.15
2022-10-23T22:59:05.614Z,23.57
2022-10-23T23:01:38.442Z,19.20
2022-10-23T23:04:19.662Z,21.23
2022-10-23T23:06:35.752Z,19.37
2022-10-23T23:09:04.230Z,22.07
2022-10-23T23:11:37.087Z,22.20
2022-10-23T23:14:02.610Z,22.35
2022-10-23T23:16:31.974Z,16.80
2022-10-23T23:19:02.669Z,19.00
2022-10-23T23:21:30.986Z,17.00
2022-10-23T23:23:58.735Z,22.40
2022-10-23T23:26:26.573Z,19.32
2022-10-23T23:28:55.015Z,17.23
2022-10-23T23:31:26.117Z,19.67
2022-10-23T23:33:54.523Z,18.90
2022-10-23T23:36:27.822Z,18.15
2022-10-23T23:38:57.191Z,15.90
2022-10-23T23:41:26.091Z,16.12
2022-10-23T23:43:56.873Z,19.32
2022-10-23T23:46:25.489Z,21.55
2022-10-23T23:48:53.051Z,20.12
2022-10-23T23:51:24.375Z,19.92
2022-10-23T23:53:52.772Z,20.12
2022-10-23T23:56:21.041Z,16.65
2022-10-23T23:58:48.553Z,14.38
